sensor_id;sensor_type;location;lat;lon;timestamp;pressure;altitude;pressure_sealevel;temperature;humidity
75418;BME280;63997;52.112;5.420;2022-12-07T00:01:11;101970.69;;;2.89;91.99
75418;BME280;63997;52.112;5.420;2022-12-07T00:03:38;101974.91;;;2.90;92.13
75418;BME280;63997;52.112;5.420;2022-12-07T00:06:07;101974.91;;;2.90;92.34
75418;BME280;63997;52.112;5.420;2022-12-07T00:08:34;101969.09;;;2.88;92.08
75418;BME280;63997;52.112;5.420;2022-12-07T00:11:09;101974.28;;;2.83;92.16
75418;BME280;63997;52.112;5.420;2022-12-07T00:13:36;101969.00;;;2.83;92.05
75418;BME280;63997;52.112;5.420;2022-12-07T00:16:06;101971.88;;;2.82;92.09
75418;BME280;63997;52.112;5.420;2022-12-07T00:18:33;101966.31;;;2.78;92.09
75418;BME280;63997;52.112;5.420;2022-12-07T00:21:05;101975.69;;;2.74;91.87
75418;BME280;63997;52.112;5.420;2022-12-07T00:23:33;101972.25;;;2.74;91.96
75418;BME280;63997;52.112;5.420;2022-12-07T00:26:04;101964.88;;;2.71;91.99
75418;BME280;63997;52.112;5.420;2022-12-07T00:28:31;101961.66;;;2.69;91.83
75418;BME280;63997;52.112;5.420;2022-12-07T00:31:05;101960.34;;;2.66;92.03
75418;BME280;63997;52.112;5.420;2022-12-07T00:33:33;101961.38;;;2.65;91.92
75418;BME280;63997;52.112;5.420;2022-12-07T00:36:01;101955.53;;;2.63;92.03
75418;BME280;63997;52.112;5.420;2022-12-07T00:38:30;101951.34;;;2.62;92.29
75418;BME280;63997;52.112;5.420;2022-12-07T00:41:02;101939.78;;;2.63;92.30
75418;BME280;63997;52.112;5.420;2022-12-07T00:43:29;101949.28;;;2.64;92.36
75418;BME280;63997;52.112;5.420;2022-12-07T00:45:56;101944.03;;;2.64;92.49
75418;BME280;63997;52.112;5.420;2022-12-07T00:48:23;101946.41;;;2.65;92.54
75418;BME280;63997;52.112;5.420;2022-12-07T00:50:50;101930.94;;;2.69;92.50
75418;BME280;63997;52.112;5.420;2022-12-07T00:53:17;101943.53;;;2.67;92.42
75418;BME280;63997;52.112;5.420;2022-12-07T00:55:44;101936.69;;;2.66;92.49
75418;BME280;63997;52.112;5.420;2022-12-07T00:58:11;101942.41;;;2.63;92.52
75418;BME280;63997;52.112;5.420;2022-12-07T01:00:39;101941.06;;;2.60;92.29
75418;BME280;63997;52.112;5.420;2022-12-07T01:03:07;101938.13;;;2.57;92.01
75418;BME280;63997;52.112;5.420;2022-12-07T01:05:34;101932.88;;;2.57;92.33
75418;BME280;63997;52.112;5.420;2022-12-07T01:08:01;101929.69;;;2.55;92.21
75418;BME280;63997;52.112;5.420;2022-12-07T01:10:28;101937.03;;;2.53;92.10
75418;BME280;63997;52.112;5.420;2022-12-07T01:12:56;101930.41;;;2.50;92.20
75418;BME280;63997;52.112;5.420;2022-12-07T01:15:23;101936.94;;;2.48;92.22
75418;BME280;63997;52.112;5.420;2022-12-07T01:17:49;101936.94;;;2.48;92.02
75418;BME280;63997;52.112;5.420;2022-12-07T01:20:15;101940.56;;;2.47;92.19
75418;BME280;63997;52.112;5.420;2022-12-07T01:22:43;101935.31;;;2.47;92.28
75418;BME280;63997;52.112;5.420;2022-12-07T01:25:11;101937.72;;;2.48;92.56
75418;BME280;63997;52.112;5.420;2022-12-07T01:27:37;101941.16;;;2.49;92.51
75418;BME280;63997;52.112;5.420;2022-12-07T01:30:05;101941.16;;;2.49;92.31
75418;BME280;63997;52.112;5.420;2022-12-07T01:32:33;101946.84;;;2.46;92.33
75418;BME280;63997;52.112;5.420;2022-12-07T01:34:59;101944.47;;;2.44;92.30
75418;BME280;63997;52.112;5.420;2022-12-07T01:37:26;101944.72;;;2.43;92.30
75418;BME280;63997;52.112;5.420;2022-12-07T01:39:52;101940.50;;;2.42;92.23
75418;BME280;63997;52.112;5.420;2022-12-07T01:42:18;101944.63;;;2.37;92.25
75418;BME280;63997;52.112;5.420;2022-12-07T01:47:53;101941.13;;;2.32;92.04
75418;BME280;63997;52.112;5.420;2022-12-07T01:50:24;101938.16;;;2.28;91.98
75418;BME280;63997;52.112;5.420;2022-12-07T01:52:54;101938.66;;;2.25;91.98
75418;BME280;63997;52.112;5.420;2022-12-07T01:55:22;101937.28;;;2.23;91.99
75418;BME280;63997;52.112;5.420;2022-12-07T01:57:52;101947.22;;;2.21;91.97
75418;BME280;63997;52.112;5.420;2022-12-07T02:00:19;101944.34;;;2.22;91.94
75418;BME280;63997;52.112;5.420;2022-12-07T02:03:01;101937.97;;;2.18;91.98
75418;BME280;63997;52.112;5.420;2022-12-07T02:05:30;101938.22;;;2.17;91.97
75418;BME280;63997;52.112;5.420;2022-12-07T02:07:57;101941.88;;;2.16;92.04
75418;BME280;63997;52.112;5.420;2022-12-07T02:10:27;101944.75;;;2.14;91.91
75418;BME280;63997;52.112;5.420;2022-12-07T02:12:58;101938.91;;;2.12;91.94
75418;BME280;63997;52.112;5.420;2022-12-07T02:15:35;101938.38;;;2.10;91.91
75418;BME280;63997;52.112;5.420;2022-12-07T02:18:10;101947.72;;;2.06;91.90
75418;BME280;63997;52.112;5.420;2022-12-07T02:21:05;101937.56;;;2.09;92.14
75418;BME280;63997;52.112;5.420;2022-12-07T02:23:45;101934.47;;;2.12;92.12
75418;BME280;63997;52.112;5.420;2022-12-07T02:26:32;101932.63;;;2.13;92.50
75418;BME280;63997;52.112;5.420;2022-12-07T02:29:25;101932.97;;;2.17;92.36
75418;BME280;63997;52.112;5.420;2022-12-07T02:32:04;101929.31;;;2.18;92.57
75418;BME280;63997;52.112;5.420;2022-12-07T02:34:59;101935.69;;;2.22;92.61
75418;BME280;63997;52.112;5.420;2022-12-07T02:37:51;101929.16;;;2.24;92.52
75418;BME280;63997;52.112;5.420;2022-12-07T02:40:40;101932.38;;;2.26;92.64
75418;BME280;63997;52.112;5.420;2022-12-07T02:43:17;101932.47;;;2.31;92.76
75418;BME280;63997;52.112;5.420;2022-12-07T02:45:45;101925.91;;;2.34;92.65
75418;BME280;63997;52.112;5.420;2022-12-07T02:48:16;101926.97;;;2.33;92.67
75418;BME280;63997;52.112;5.420;2022-12-07T02:50:51;101931.66;;;2.31;92.76
75418;BME280;63997;52.112;5.420;2022-12-07T02:53:41;101929.84;;;2.31;92.70
75418;BME280;63997;52.112;5.420;2022-12-07T03:02:03;101927.59;;;2.40;93.15
75418;BME280;63997;52.112;5.420;2022-12-07T03:04:55;101923.72;;;2.43;93.15
75418;BME280;63997;52.112;5.420;2022-12-07T03:07:50;101926.66;;;2.46;93.09
75418;BME280;63997;52.112;5.420;2022-12-07T03:13:12;101938.53;;;2.49;93.14
75418;BME280;63997;52.112;5.420;2022-12-07T03:16:01;101932.22;;;2.50;93.08
75418;BME280;63997;52.112;5.420;2022-12-07T03:18:31;101918.41;;;2.54;93.25
75418;BME280;63997;52.112;5.420;2022-12-07T03:21:02;101923.94;;;2.58;93.26
75418;BME280;63997;52.112;5.420;2022-12-07T03:23:32;101921.19;;;2.64;93.35
75418;BME280;63997;52.112;5.420;2022-12-07T03:26:03;101928.81;;;2.66;93.43
75418;BME280;63997;52.112;5.420;2022-12-07T03:28:33;101918.06;;;2.68;93.49
75418;BME280;63997;52.112;5.420;2022-12-07T03:31:16;101916.03;;;2.70;93.33
75418;BME280;63997;52.112;5.420;2022-12-07T03:33:51;101919.09;;;2.67;93.40
75418;BME280;63997;52.112;5.420;2022-12-07T03:36:35;101921.19;;;2.64;93.28
75418;BME280;63997;52.112;5.420;2022-12-07T03:39:13;101919.34;;;2.65;93.37
75418;BME280;63997;52.112;5.420;2022-12-07T03:41:44;101913.38;;;2.70;93.65
75418;BME280;63997;52.112;5.420;2022-12-07T03:44:11;101906.59;;;2.74;93.35
75418;BME280;63997;52.112;5.420;2022-12-07T03:49:26;101907.03;;;2.65;93.06
75418;BME280;63997;52.112;5.420;2022-12-07T03:52:11;101905.09;;;2.61;92.90
75418;BME280;63997;52.112;5.420;2022-12-07T03:54:44;101902.94;;;2.58;93.10
75418;BME280;63997;52.112;5.420;2022-12-07T03:57:13;101906.16;;;2.60;92.92
75418;BME280;63997;52.112;5.420;2022-12-07T03:59:40;101910.91;;;2.63;92.91
75418;BME280;63997;52.112;5.420;2022-12-07T04:02:12;101916.16;;;2.63;92.91
75418;BME280;63997;52.112;5.420;2022-12-07T04:04:41;101918.78;;;2.63;92.94
75418;BME280;63997;52.112;5.420;2022-12-07T04:07:09;101912.97;;;2.61;93.22
75418;BME280;63997;52.112;5.420;2022-12-07T04:09:35;101909.56;;;2.60;93.17
75418;BME280;63997;52.112;5.420;2022-12-07T04:12:02;101911.41;;;2.60;93.05
75418;BME280;63997;52.112;5.420;2022-12-07T04:14:28;101904.31;;;2.60;93.21
75418;BME280;63997;52.112;5.420;2022-12-07T04:16:56;101900.41;;;2.63;93.10
75418;BME280;63997;52.112;5.420;2022-12-07T04:19:25;101902.00;;;2.64;93.32
75418;BME280;63997;52.112;5.420;2022-12-07T04:21:52;101895.22;;;2.68;93.31
75418;BME280;63997;52.112;5.420;2022-12-07T04:24:19;101894.50;;;2.73;93.34
75418;BME280;63997;52.112;5.420;2022-12-07T04:26:46;101889.81;;;2.75;93.37
75418;BME280;63997;52.112;5.420;2022-12-07T04:29:13;101897.22;;;2.78;93.38
75418;BME280;63997;52.112;5.420;2022-12-07T04:31:40;101899.84;;;2.78;93.28
75418;BME280;63997;52.112;5.420;2022-12-07T04:34:09;101896.41;;;2.77;93.12
75418;BME280;63997;52.112;5.420;2022-12-07T04:36:36;101900.88;;;2.77;93.15
75418;BME280;63997;52.112;5.420;2022-12-07T04:39:03;101896.41;;;2.77;93.23
75418;BME280;63997;52.112;5.420;2022-12-07T04:41:30;101894.84;;;2.76;93.09
75418;BME280;63997;52.112;5.420;2022-12-07T04:44:00;101897.22;;;2.78;93.26
75418;BME280;63997;52.112;5.420;2022-12-07T04:46:31;101889.34;;;2.78;93.30
75418;BME280;63997;52.112;5.420;2022-12-07T04:48:58;101895.94;;;2.80;93.14
75418;BME280;63997;52.112;5.420;2022-12-07T04:51:27;101901.50;;;2.84;93.42
75418;BME280;63997;52.112;5.420;2022-12-07T04:53:54;101901.84;;;2.87;93.42
75418;BME280;63997;52.112;5.420;2022-12-07T04:56:22;101890.34;;;2.94;93.57
75418;BME280;63997;52.112;5.420;2022-12-07T04:58:51;101896.72;;;2.98;93.34
75418;BME280;63997;52.112;5.420;2022-12-07T05:01:18;101894.88;;;2.98;93.37
75418;BME280;63997;52.112;5.420;2022-12-07T05:03:45;101888.34;;;3.01;93.34
75418;BME280;63997;52.112;5.420;2022-12-07T05:06:12;101890.97;;;3.01;93.22
75418;BME280;63997;52.112;5.420;2022-12-07T05:08:39;101880.47;;;3.01;93.22
75418;BME280;63997;52.112;5.420;2022-12-07T05:11:08;101877.75;;;2.96;92.91
75418;BME280;63997;52.112;5.420;2022-12-07T05:13:36;101876.09;;;2.89;92.75
75418;BME280;63997;52.112;5.420;2022-12-07T05:16:02;101876.03;;;2.84;92.57
75418;BME280;63997;52.112;5.420;2022-12-07T05:18:29;101877.00;;;2.78;92.63
75418;BME280;63997;52.112;5.420;2022-12-07T05:20:55;101881.91;;;2.75;92.50
75418;BME280;63997;52.112;5.420;2022-12-07T05:23:22;101876.84;;;2.68;92.42
75418;BME280;63997;52.112;5.420;2022-12-07T05:25:49;101878.38;;;2.64;92.05
75418;BME280;63997;52.112;5.420;2022-12-07T05:28:15;101880.94;;;2.59;92.18
75418;BME280;63997;52.112;5.420;2022-12-07T05:30:42;101877.63;;;2.52;92.03
75418;BME280;63997;52.112;5.420;2022-12-07T05:33:08;101884.44;;;2.48;91.98
75418;BME280;63997;52.112;5.420;2022-12-07T05:35:34;101879.41;;;2.46;92.01
75418;BME280;63997;52.112;5.420;2022-12-07T05:38:01;101880.44;;;2.45;92.16
75418;BME280;63997;52.112;5.420;2022-12-07T05:40:27;101877.50;;;2.42;91.87
75418;BME280;63997;52.112;5.420;2022-12-07T05:42:54;101879.81;;;2.38;91.88
75418;BME280;63997;52.112;5.420;2022-12-07T05:45:25;101879.72;;;2.33;91.73
75418;BME280;63997;52.112;5.420;2022-12-07T05:47:51;101883.63;;;2.30;91.85
75418;BME280;63997;52.112;5.420;2022-12-07T05:50:18;101883.84;;;2.29;91.61
75418;BME280;63997;52.112;5.420;2022-12-07T05:52:44;101881.47;;;2.27;91.76
75418;BME280;63997;52.112;5.420;2022-12-07T05:55:10;101881.91;;;2.24;91.67
75418;BME280;63997;52.112;5.420;2022-12-07T05:57:37;101882.75;;;2.25;91.69
75418;BME280;63997;52.112;5.420;2022-12-07T06:00:04;101878.28;;;2.25;91.88
75418;BME280;63997;52.112;5.420;2022-12-07T06:02:31;101885.13;;;2.26;91.86
75418;BME280;63997;52.112;5.420;2022-12-07T06:04:58;101883.53;;;2.25;91.91
75418;BME280;63997;52.112;5.420;2022-12-07T06:07:24;101883.53;;;2.25;91.89
75418;BME280;63997;52.112;5.420;2022-12-07T06:09:51;101885.13;;;2.26;92.12
75418;BME280;63997;52.112;5.420;2022-12-07T06:12:17;101887.50;;;2.28;92.10
75418;BME280;63997;52.112;5.420;2022-12-07T06:15:04;101883.84;;;2.29;92.07
75418;BME280;63997;52.112;5.420;2022-12-07T06:17:31;101883.53;;;2.25;92.02
75418;BME280;63997;52.112;5.420;2022-12-07T06:19:58;101885.59;;;2.23;92.15
75418;BME280;63997;52.112;5.420;2022-12-07T06:22:24;101894.50;;;2.22;92.11
75418;BME280;63997;52.112;5.420;2022-12-07T06:24:50;101896.56;;;2.20;92.05
75418;BME280;63997;52.112;5.420;2022-12-07T06:27:17;101895.78;;;2.20;92.21
75418;BME280;63997;52.112;5.420;2022-12-07T06:29:43;101887.66;;;2.21;92.16
75418;BME280;63997;52.112;5.420;2022-12-07T06:32:10;101888.22;;;2.23;92.34
75418;BME280;63997;52.112;5.420;2022-12-07T06:34:37;101882.75;;;2.25;92.72
75418;BME280;63997;52.112;5.420;2022-12-07T06:37:03;101895.63;;;2.26;92.49
75418;BME280;63997;52.112;5.420;2022-12-07T06:39:30;101883.53;;;2.25;92.53
75418;BME280;63997;52.112;5.420;2022-12-07T06:41:57;101887.66;;;2.21;92.13
75418;BME280;63997;52.112;5.420;2022-12-07T06:44:24;101894.16;;;2.19;92.28
75418;BME280;63997;52.112;5.420;2022-12-07T06:46:51;101889.72;;;2.19;92.52
75418;BME280;63997;52.112;5.420;2022-12-07T06:49:38;101893.69;;;2.22;92.43
75418;BME280;63997;52.112;5.420;2022-12-07T06:52:04;101901.34;;;2.23;92.53
75418;BME280;63997;52.112;5.420;2022-12-07T06:54:31;101892.41;;;2.24;92.57
75418;BME280;63997;52.112;5.420;2022-12-07T06:56:58;101900.28;;;2.24;92.50
75418;BME280;63997;52.112;5.420;2022-12-07T06:59:27;101894.50;;;2.22;92.48
75418;BME280;63997;52.112;5.420;2022-12-07T07:01:53;101897.59;;;2.19;92.53
75418;BME280;63997;52.112;5.420;2022-12-07T07:04:20;101889.41;;;2.16;92.39
75418;BME280;63997;52.112;5.420;2022-12-07T07:06:46;101887.47;;;2.11;92.33
75418;BME280;63997;52.112;5.420;2022-12-07T07:09:13;101884.84;;;2.11;92.30
75418;BME280;63997;52.112;5.420;2022-12-07T07:11:39;101881.91;;;2.07;92.49
75418;BME280;63997;52.112;5.420;2022-12-07T07:14:06;101884.75;;;2.06;92.20
75418;BME280;63997;52.112;5.420;2022-12-07T07:16:32;101883.19;;;2.05;92.24
75418;BME280;63997;52.112;5.420;2022-12-07T07:18:58;101879.53;;;2.06;92.39
75418;BME280;63997;52.112;5.420;2022-12-07T07:21:25;101891.06;;;2.05;92.36
75418;BME280;63997;52.112;5.420;2022-12-07T07:23:52;101887.38;;;2.06;92.29
75418;BME280;63997;52.112;5.420;2022-12-07T07:26:18;101893.69;;;2.05;92.31
75418;BME280;63997;52.112;5.420;2022-12-07T07:28:49;101890.72;;;2.01;92.21
75418;BME280;63997;52.112;5.420;2022-12-07T07:31:18;101888.56;;;1.98;92.17
75418;BME280;63997;52.112;5.420;2022-12-07T07:33:46;101890.63;;;1.96;91.91
75418;BME280;63997;52.112;5.420;2022-12-07T07:36:13;101888.25;;;1.95;92.09
75418;BME280;63997;52.112;5.420;2022-12-07T07:38:39;101888.47;;;1.93;91.91
75418;BME280;63997;52.112;5.420;2022-12-07T07:41:05;101882.69;;;1.91;92.01
75418;BME280;63997;52.112;5.420;2022-12-07T07:43:32;101888.72;;;1.92;92.14
75418;BME280;63997;52.112;5.420;2022-12-07T07:46:00;101888.72;;;1.92;92.05
75418;BME280;63997;52.112;5.420;2022-12-07T07:48:26;101887.94;;;1.91;92.25
75418;BME280;63997;52.112;5.420;2022-12-07T07:50:53;101897.16;;;1.94;92.29
75418;BME280;63997;52.112;5.420;2022-12-07T07:53:19;101886.91;;;1.92;92.16
75418;BME280;63997;52.112;5.420;2022-12-07T07:55:53;101896.59;;;1.92;92.13
75418;BME280;63997;52.112;5.420;2022-12-07T07:58:20;101899.22;;;1.92;92.01
75418;BME280;63997;52.112;5.420;2022-12-07T08:00:50;101890.06;;;1.94;92.25
75418;BME280;63997;52.112;5.420;2022-12-07T08:03:17;101894.63;;;1.99;92.17
75418;BME280;63997;52.112;5.420;2022-12-07T08:05:43;101899.16;;;2.03;92.13
75418;BME280;63997;52.112;5.420;2022-12-07T08:08:09;101898.47;;;2.08;92.19
75418;BME280;63997;52.112;5.420;2022-12-07T08:10:36;101908.09;;;2.19;92.26
75418;BME280;63997;52.112;5.420;2022-12-07T08:13:04;101903.25;;;2.45;92.46
75418;BME280;63997;52.112;5.420;2022-12-07T08:15:40;101897.13;;;2.73;92.06
75418;BME280;63997;52.112;5.420;2022-12-07T08:18:07;101905.19;;;2.66;91.35
75418;BME280;63997;52.112;5.420;2022-12-07T08:20:36;101907.91;;;2.54;91.02
75418;BME280;63997;52.112;5.420;2022-12-07T08:23:03;101915.69;;;2.49;91.13
75418;BME280;63997;52.112;5.420;2022-12-07T08:25:30;101923.31;;;2.51;91.14
75418;BME280;63997;52.112;5.420;2022-12-07T08:27:56;101911.31;;;2.55;90.99
75418;BME280;63997;52.112;5.420;2022-12-07T08:30:23;101920.94;;;2.66;91.25
75418;BME280;63997;52.112;5.420;2022-12-07T08:32:50;101907.19;;;3.36;91.06
75418;BME280;63997;52.112;5.420;2022-12-07T08:35:16;101904.34;;;3.60;89.93
75418;BME280;63997;52.112;5.420;2022-12-07T08:37:43;101896.75;;;3.41;89.75
75418;BME280;63997;52.112;5.420;2022-12-07T08:40:10;101889.84;;;3.57;90.17
75418;BME280;63997;52.112;5.420;2022-12-07T08:42:42;101894.53;;;4.31;89.16
75418;BME280;63997;52.112;5.420;2022-12-07T08:45:12;101900.13;;;4.72;88.29
75418;BME280;63997;52.112;5.420;2022-12-07T08:48:04;101906.84;;;4.58;87.23
75418;BME280;63997;52.112;5.420;2022-12-07T08:50:34;101892.34;;;4.23;87.17
75418;BME280;63997;52.112;5.420;2022-12-07T08:53:03;101902.19;;;4.06;87.72
75418;BME280;63997;52.112;5.420;2022-12-07T08:55:31;101905.25;;;3.97;88.29
75418;BME280;63997;52.112;5.420;2022-12-07T08:58:00;101902.56;;;3.92;88.54
75418;BME280;63997;52.112;5.420;2022-12-07T09:00:26;101898.38;;;3.91;88.72
75418;BME280;63997;52.112;5.420;2022-12-07T09:02:53;101901.56;;;3.93;88.88
75418;BME280;63997;52.112;5.420;2022-12-07T09:05:20;101895.50;;;3.93;88.97
75418;BME280;63997;52.112;5.420;2022-12-07T09:07:49;101907.31;;;3.90;88.98
75418;BME280;63997;52.112;5.420;2022-12-07T09:10:17;101905.72;;;3.89;89.09
75418;BME280;63997;52.112;5.420;2022-12-07T09:12:44;101899.09;;;3.87;89.12
75418;BME280;63997;52.112;5.420;2022-12-07T09:15:10;101900.94;;;3.86;89.52
75418;BME280;63997;52.112;5.420;2022-12-07T09:17:36;101898.88;;;3.88;89.33
75418;BME280;63997;52.112;5.420;2022-12-07T09:20:05;101893.88;;;3.92;89.64
75418;BME280;63997;52.112;5.420;2022-12-07T09:22:32;101896.03;;;4.22;89.43
75418;BME280;63997;52.112;5.420;2022-12-07T09:24:59;101898.41;;;4.23;89.28
75418;BME280;63997;52.112;5.420;2022-12-07T09:27:26;101904.81;;;4.33;89.65
75418;BME280;63997;52.112;5.420;2022-12-07T09:29:53;101911.59;;;4.56;89.25
75418;BME280;63997;52.112;5.420;2022-12-07T09:32:20;101911.03;;;4.54;89.05
75418;BME280;63997;52.112;5.420;2022-12-07T09:34:46;101911.28;;;4.52;89.09
75418;BME280;63997;52.112;5.420;2022-12-07T09:37:13;101909.72;;;4.51;88.92
75418;BME280;63997;52.112;5.420;2022-12-07T09:39:40;101907.34;;;4.49;88.86
75418;BME280;63997;52.112;5.420;2022-12-07T09:42:26;101904.44;;;4.51;89.01
75418;BME280;63997;52.112;5.420;2022-12-07T09:44:53;101905.50;;;4.50;88.78
75418;BME280;63997;52.112;5.420;2022-12-07T09:47:20;101901.53;;;4.53;88.81
75418;BME280;63997;52.112;5.420;2022-12-07T09:49:46;101900.25;;;4.55;88.82
75418;BME280;63997;52.112;5.420;2022-12-07T09:52:27;101890.31;;;4.62;89.09
75418;BME280;63997;52.112;5.420;2022-12-07T09:55:03;101896.13;;;4.69;89.00
75418;BME280;63997;52.112;5.420;2022-12-07T09:57:31;101894.84;;;4.72;88.93
75418;BME280;63997;52.112;5.420;2022-12-07T10:00:01;101888.53;;;4.73;88.94
75418;BME280;63997;52.112;5.420;2022-12-07T10:02:41;101899.06;;;4.73;89.02
75418;BME280;63997;52.112;5.420;2022-12-07T10:05:15;101900.13;;;4.72;88.94
75418;BME280;63997;52.112;5.420;2022-12-07T10:07:49;101877.47;;;4.76;89.07
75418;BME280;63997;52.112;5.420;2022-12-07T10:10:20;101893.56;;;4.80;88.76
75418;BME280;63997;52.112;5.420;2022-12-07T10:12:58;101884.34;;;4.82;88.72
75418;BME280;63997;52.112;5.420;2022-12-07T10:18:21;101879.09;;;4.82;88.53
75418;BME280;63997;52.112;5.420;2022-12-07T10:21:04;101872.53;;;4.85;88.67
75418;BME280;63997;52.112;5.420;2022-12-07T10:23:34;101874.41;;;4.89;88.92
75418;BME280;63997;52.112;5.420;2022-12-07T10:26:25;101868.72;;;5.13;89.04
75418;BME280;63997;52.112;5.420;2022-12-07T10:28:53;101867.00;;;5.44;88.88
75418;BME280;63997;52.112;5.420;2022-12-07T10:31:21;101859.88;;;5.44;88.05
75418;BME280;63997;52.112;5.420;2022-12-07T10:33:59;101856.44;;;5.44;88.37
75418;BME280;63997;52.112;5.420;2022-12-07T10:36:34;101858.03;;;5.40;88.37
75418;BME280;63997;52.112;5.420;2022-12-07T10:39:12;101855.09;;;5.36;88.50
75418;BME280;63997;52.112;5.420;2022-12-07T10:41:58;101848.72;;;5.27;88.26
75418;BME280;63997;52.112;5.420;2022-12-07T10:44:27;101843.44;;;5.27;88.18
75418;BME280;63997;52.112;5.420;2022-12-07T10:47:19;101843.50;;;5.37;87.62
75418;BME280;63997;52.112;5.420;2022-12-07T10:50:37;101843.25;;;5.34;87.68
75418;BME280;63997;52.112;5.420;2022-12-07T10:53:08;101845.06;;;5.38;87.70
75418;BME280;63997;52.112;5.420;2022-12-07T10:56:05;101840.59;;;5.39;87.74
75418;BME280;63997;52.112;5.420;2022-12-07T10:58:51;101840.59;;;5.39;87.92
75418;BME280;63997;52.112;5.420;2022-12-07T11:01:33;101837.16;;;5.38;88.07
75418;BME280;63997;52.112;5.420;2022-12-07T11:06:59;101833.47;;;5.44;88.02
75418;BME280;63997;52.112;5.420;2022-12-07T11:09:32;101833.25;;;5.51;88.13
75418;BME280;63997;52.112;5.420;2022-12-07T11:13:07;101832.25;;;5.67;87.63
75418;BME280;63997;52.112;5.420;2022-12-07T11:18:51;101821.19;;;5.86;87.05
75418;BME280;63997;52.112;5.420;2022-12-07T11:26:57;101816.94;;;5.79;86.51
75418;BME280;63997;52.112;5.420;2022-12-07T11:29:47;101812.97;;;5.72;86.44
75418;BME280;63997;52.112;5.420;2022-12-07T11:32:34;101811.66;;;5.64;86.33
75418;BME280;63997;52.112;5.420;2022-12-07T11:37:37;101808.97;;;5.49;86.00
75418;BME280;63997;52.112;5.420;2022-12-07T11:40:20;101807.63;;;5.41;85.80
75418;BME280;63997;52.112;5.420;2022-12-07T11:45:29;101804.19;;;5.36;85.79
75418;BME280;63997;52.112;5.420;2022-12-07T11:48:33;101790.22;;;5.40;86.11
75418;BME280;63997;52.112;5.420;2022-12-07T11:50:59;101797.63;;;5.48;86.49
75418;BME280;63997;52.112;5.420;2022-12-07T11:53:29;101794.22;;;5.58;86.08
75418;BME280;63997;52.112;5.420;2022-12-07T11:56:12;101792.66;;;5.62;85.95
75418;BME280;63997;52.112;5.420;2022-12-07T12:04:07;101787.13;;;5.74;86.45
75418;BME280;63997;52.112;5.420;2022-12-07T12:06:42;101783.94;;;5.82;86.33
75418;BME280;63997;52.112;5.420;2022-12-07T12:09:18;101772.09;;;5.90;85.70
75418;BME280;63997;52.112;5.420;2022-12-07T12:12:24;101773.44;;;5.97;85.81
75418;BME280;63997;52.112;5.420;2022-12-07T12:15:26;101768.16;;;6.07;84.73
75418;BME280;63997;52.112;5.420;2022-12-07T12:18:03;101771.31;;;6.09;83.94
75418;BME280;63997;52.112;5.420;2022-12-07T12:20:37;101764.44;;;6.14;83.94
75418;BME280;63997;52.112;5.420;2022-12-07T12:23:24;101766.03;;;6.20;83.54
75418;BME280;63997;52.112;5.420;2022-12-07T12:25:55;101770.75;;;6.23;83.83
75418;BME280;63997;52.112;5.420;2022-12-07T12:28:35;101765.22;;;6.29;83.59
75418;BME280;63997;52.112;5.420;2022-12-07T12:33:53;101754.59;;;6.45;83.02
75418;BME280;63997;52.112;5.420;2022-12-07T12:36:24;101750.09;;;6.50;83.36
75418;BME280;63997;52.112;5.420;2022-12-07T12:46:58;101738.34;;;6.82;81.44
75418;BME280;63997;52.112;5.420;2022-12-07T12:51:57;101732.91;;;7.12;80.75
75418;BME280;63997;52.112;5.420;2022-12-07T12:57:13;101730.66;;;7.35;80.75
75418;BME280;63997;52.112;5.420;2022-12-07T13:02:22;101729.91;;;7.29;80.29
75418;BME280;63997;52.112;5.420;2022-12-07T13:05:14;101750.41;;;7.08;78.88
75418;BME280;63997;52.112;5.420;2022-12-07T13:08:02;101750.53;;;6.73;79.28
75418;BME280;63997;52.112;5.420;2022-12-07T13:10:35;101739.78;;;6.54;79.13
75418;BME280;63997;52.112;5.420;2022-12-07T13:15:45;101720.59;;;6.18;80.68
75418;BME280;63997;52.112;5.420;2022-12-07T13:20:56;101715.34;;;5.97;81.52
75418;BME280;63997;52.112;5.420;2022-12-07T13:36:52;101689.75;;;5.47;84.00
75418;BME280;63997;52.112;5.420;2022-12-07T13:39:24;101691.03;;;5.44;83.86
75418;BME280;63997;52.112;5.420;2022-12-07T13:41:53;101693.69;;;5.39;83.92
75418;BME280;63997;52.112;5.420;2022-12-07T13:44:21;101687.34;;;5.35;84.47
75418;BME280;63997;52.112;5.420;2022-12-07T13:49:32;101696.31;;;5.34;84.69
75418;BME280;63997;52.112;5.420;2022-12-07T13:52:25;101687.09;;;5.31;84.86
75418;BME280;63997;52.112;5.420;2022-12-07T13:57:34;101681.00;;;5.31;85.45
75418;BME280;63997;52.112;5.420;2022-12-07T14:00:04;101676.53;;;5.31;85.78
75418;BME280;63997;52.112;5.420;2022-12-07T14:02:33;101676.03;;;5.35;86.04
75418;BME280;63997;52.112;5.420;2022-12-07T14:05:30;101679.72;;;5.34;86.45
75418;BME280;63997;52.112;5.420;2022-12-07T14:13:40;101668.63;;;5.42;86.45
75418;BME280;63997;52.112;5.420;2022-12-07T14:16:22;101660.72;;;5.42;86.61
75418;BME280;63997;52.112;5.420;2022-12-07T14:18:50;101674.19;;;5.45;86.75
75418;BME280;63997;52.112;5.420;2022-12-07T14:21:20;101663.63;;;5.45;86.69
75418;BME280;63997;52.112;5.420;2022-12-07T14:24:08;101658.34;;;5.45;86.79
75418;BME280;63997;52.112;5.420;2022-12-07T14:26:35;101664.16;;;5.47;87.14
75418;BME280;63997;52.112;5.420;2022-12-07T14:31:52;101651.47;;;5.49;87.21
75418;BME280;63997;52.112;5.420;2022-12-07T14:34:22;101647.53;;;5.52;86.97
75418;BME280;63997;52.112;5.420;2022-12-07T14:36:49;101657.03;;;5.53;87.02
75418;BME280;63997;52.112;5.420;2022-12-07T14:39:15;101654.66;;;5.51;87.00
75418;BME280;63997;52.112;5.420;2022-12-07T14:41:42;101644.63;;;5.48;86.97
75418;BME280;63997;52.112;5.420;2022-12-07T14:44:22;101646.75;;;5.46;87.43
75418;BME280;63997;52.112;5.420;2022-12-07T14:46:54;101641.19;;;5.43;87.40
75418;BME280;63997;52.112;5.420;2022-12-07T14:49:41;101635.13;;;5.37;87.46
75418;BME280;63997;52.112;5.420;2022-12-07T14:52:17;101640.41;;;5.32;87.67
75418;BME280;63997;52.112;5.420;2022-12-07T14:55:28;101636.72;;;5.28;87.61